sensor_id;sensor_type;location;lat;lon;timestamp;P1;durP1;ratioP1;P2;durP2;ratioP2
52266;SDS011;38223;50.940;4.034;2023-04-08T00:02:11;24.90;;;9.00;;
52266;SDS011;38223;50.940;4.034;2023-04-08T00:04:39;20.12;;;8.15;;
52266;SDS011;38223;50.940;4.034;2023-04-08T00:07:10;14.45;;;7.75;;
52266;SDS011;38223;50.940;4.034;2023-04-08T00:09:46;18.87;;;8.33;;
52266;SDS011;38223;50.940;4.034;2023-04-08T00:12:25;20.75;;;8.95;;
52266;SDS011;38223;50.940;4.034;2023-04-08T00:14:55;21.75;;;8.43;;
52266;SDS011;38223;50.940;4.034;2023-04-08T00:17:27;20.32;;;8.50;;
52266;SDS011;38223;50.940;4.034;2023-04-08T00:19:56;23.00;;;8.98;;
52266;SDS011;38223;50.940;4.034;2023-04-08T00:22:24;22.67;;;9.15;;
52266;SDS011;38223;50.940;4.034;2023-04-08T00:24:51;22.30;;;9.28;;
52266;SDS011;38223;50.940;4.034;2023-04-08T00:27:27;22.85;;;9.25;;
52266;SDS011;38223;50.940;4.034;2023-04-08T00:30:02;21.95;;;8.80;;
52266;SDS011;38223;50.940;4.034;2023-04-08T00:32:35;26.02;;;8.88;;
52266;SDS011;38223;50.940;4.034;2023-04-08T00:35:06;23.12;;;9.73;;
52266;SDS011;38223;50.940;4.034;2023-04-08T00:37:34;19.85;;;9.08;;
52266;SDS011;38223;50.940;4.034;2023-04-08T00:40:07;18.67;;;9.23;;
52266;SDS011;38223;50.940;4.034;2023-04-08T00:42:42;20.32;;;9.03;;
52266;SDS011;38223;50.940;4.034;2023-04-08T00:45:20;15.15;;;9.33;;
52266;SDS011;38223;50.940;4.034;2023-04-08T00:47:55;20.88;;;9.35;;
52266;SDS011;38223;50.940;4.034;2023-04-08T00:50:30;15.13;;;8.85;;
52266;SDS011;38223;50.940;4.034;2023-04-08T00:53:01;13.25;;;9.05;;
52266;SDS011;38223;50.940;4.034;2023-04-08T00:55:50;15.48;;;8.73;;
52266;SDS011;38223;50.940;4.034;2023-04-08T00:58:30;17.30;;;8.88;;
52266;SDS011;38223;50.940;4.034;2023-04-08T01:01:13;22.32;;;9.03;;
52266;SDS011;38223;50.940;4.034;2023-04-08T01:06:55;15.38;;;8.75;;
52266;SDS011;38223;50.940;4.034;2023-04-08T01:09:47;18.40;;;9.23;;
52266;SDS011;38223;50.940;4.034;2023-04-08T01:12:21;23.87;;;9.73;;
52266;SDS011;38223;50.940;4.034;2023-04-08T01:14:55;21.48;;;9.38;;
52266;SDS011;38223;50.940;4.034;2023-04-08T01:17:25;22.07;;;8.98;;
52266;SDS011;38223;50.940;4.034;2023-04-08T01:20:00;24.57;;;9.25;;
52266;SDS011;38223;50.940;4.034;2023-04-08T01:25:34;15.15;;;9.23;;
52266;SDS011;38223;50.940;4.034;2023-04-08T01:28:18;21.75;;;8.80;;
52266;SDS011;38223;50.940;4.034;2023-04-08T01:30:50;18.90;;;9.13;;
52266;SDS011;38223;50.940;4.034;2023-04-08T01:33:37;14.23;;;7.97;;
52266;SDS011;38223;50.940;4.034;2023-04-08T01:36:10;18.77;;;8.40;;
52266;SDS011;38223;50.940;4.034;2023-04-08T01:38:48;24.60;;;8.50;;
52266;SDS011;38223;50.940;4.034;2023-04-08T01:41:23;16.20;;;8.98;;
52266;SDS011;38223;50.940;4.034;2023-04-08T01:43:51;13.10;;;8.50;;
52266;SDS011;38223;50.940;4.034;2023-04-08T01:46:22;16.97;;;8.68;;
52266;SDS011;38223;50.940;4.034;2023-04-08T01:49:03;15.63;;;8.70;;
52266;SDS011;38223;50.940;4.034;2023-04-08T01:51:37;15.85;;;8.20;;
52266;SDS011;38223;50.940;4.034;2023-04-08T01:54:23;19.50;;;9.00;;
52266;SDS011;38223;50.940;4.034;2023-04-08T01:57:21;25.65;;;9.03;;
52266;SDS011;38223;50.940;4.034;2023-04-08T01:59:58;19.17;;;9.00;;
52266;SDS011;38223;50.940;4.034;2023-04-08T02:02:39;21.65;;;9.68;;
52266;SDS011;38223;50.940;4.034;2023-04-08T02:05:15;11.80;;;8.70;;
52266;SDS011;38223;50.940;4.034;2023-04-08T02:07:51;17.05;;;9.45;;
52266;SDS011;38223;50.940;4.034;2023-04-08T02:10:24;17.12;;;9.15;;
52266;SDS011;38223;50.940;4.034;2023-04-08T02:13:02;13.70;;;9.38;;
52266;SDS011;38223;50.940;4.034;2023-04-08T02:15:33;15.85;;;9.13;;
52266;SDS011;38223;50.940;4.034;2023-04-08T02:18:12;16.20;;;9.20;;
52266;SDS011;38223;50.940;4.034;2023-04-08T02:20:47;10.68;;;8.90;;
52266;SDS011;38223;50.940;4.034;2023-04-08T02:23:24;16.90;;;8.48;;
52266;SDS011;38223;50.940;4.034;2023-04-08T02:25:57;18.75;;;9.43;;
52266;SDS011;38223;50.940;4.034;2023-04-08T02:28:24;22.27;;;9.60;;
52266;SDS011;38223;50.940;4.034;2023-04-08T02:30:54;21.77;;;9.58;;
52266;SDS011;38223;50.940;4.034;2023-04-08T02:33:25;12.23;;;9.80;;
52266;SDS011;38223;50.940;4.034;2023-04-08T02:36:00;21.23;;;9.95;;
52266;SDS011;38223;50.940;4.034;2023-04-08T02:38:38;16.57;;;9.65;;
52266;SDS011;38223;50.940;4.034;2023-04-08T02:41:11;24.07;;;9.53;;
52266;SDS011;38223;50.940;4.034;2023-04-08T02:43:43;16.67;;;9.50;;
52266;SDS011;38223;50.940;4.034;2023-04-08T02:46:25;19.45;;;10.63;;
52266;SDS011;38223;50.940;4.034;2023-04-08T02:48:52;23.87;;;10.05;;
52266;SDS011;38223;50.940;4.034;2023-04-08T02:51:20;18.77;;;10.43;;
52266;SDS011;38223;50.940;4.034;2023-04-08T02:54:05;15.90;;;10.43;;
52266;SDS011;38223;50.940;4.034;2023-04-08T02:56:48;21.85;;;10.60;;
52266;SDS011;38223;50.940;4.034;2023-04-08T02:59:26;18.45;;;10.95;;
52266;SDS011;38223;50.940;4.034;2023-04-08T03:02:06;17.60;;;10.38;;
52266;SDS011;38223;50.940;4.034;2023-04-08T03:04:47;19.85;;;11.12;;
52266;SDS011;38223;50.940;4.034;2023-04-08T03:07:25;14.87;;;10.65;;
52266;SDS011;38223;50.940;4.034;2023-04-08T03:09:57;17.40;;;11.95;;
52266;SDS011;38223;50.940;4.034;2023-04-08T03:12:32;20.05;;;11.70;;
52266;SDS011;38223;50.940;4.034;2023-04-08T03:15:00;22.37;;;12.35;;
52266;SDS011;38223;50.940;4.034;2023-04-08T03:17:28;18.05;;;11.43;;
52266;SDS011;38223;50.940;4.034;2023-04-08T03:20:04;20.97;;;11.15;;
52266;SDS011;38223;50.940;4.034;2023-04-08T03:22:34;20.35;;;11.97;;
52266;SDS011;38223;50.940;4.034;2023-04-08T03:25:04;18.62;;;11.28;;
52266;SDS011;38223;50.940;4.034;2023-04-08T03:27:52;21.93;;;11.97;;
52266;SDS011;38223;50.940;4.034;2023-04-08T03:30:26;15.98;;;11.43;;
52266;SDS011;38223;50.940;4.034;2023-04-08T03:33:01;16.90;;;12.05;;
52266;SDS011;38223;50.940;4.034;2023-04-08T03:35:43;22.50;;;11.70;;
52266;SDS011;38223;50.940;4.034;2023-04-08T03:38:15;25.25;;;11.60;;
52266;SDS011;38223;50.940;4.034;2023-04-08T03:40:54;20.17;;;12.05;;
52266;SDS011;38223;50.940;4.034;2023-04-08T03:43:28;16.20;;;11.15;;
52266;SDS011;38223;50.940;4.034;2023-04-08T03:46:04;20.50;;;12.23;;
52266;SDS011;38223;50.940;4.034;2023-04-08T03:48:38;19.15;;;11.83;;
52266;SDS011;38223;50.940;4.034;2023-04-08T03:51:11;16.57;;;11.30;;
52266;SDS011;38223;50.940;4.034;2023-04-08T03:53:51;19.55;;;11.63;;
52266;SDS011;38223;50.940;4.034;2023-04-08T03:56:27;19.27;;;11.20;;
52266;SDS011;38223;50.940;4.034;2023-04-08T03:58:55;21.12;;;11.43;;
52266;SDS011;38223;50.940;4.034;2023-04-08T04:01:22;21.75;;;12.18;;
52266;SDS011;38223;50.940;4.034;2023-04-08T04:04:01;18.82;;;13.20;;
52266;SDS011;38223;50.940;4.034;2023-04-08T04:06:35;21.05;;;12.53;;
52266;SDS011;38223;50.940;4.034;2023-04-08T04:09:15;17.80;;;11.57;;
52266;SDS011;38223;50.940;4.034;2023-04-08T04:12:06;17.87;;;12.33;;
52266;SDS011;38223;50.940;4.034;2023-04-08T04:14:44;21.62;;;13.08;;
52266;SDS011;38223;50.940;4.034;2023-04-08T04:17:35;22.58;;;12.40;;
52266;SDS011;38223;50.940;4.034;2023-04-08T04:20:04;17.27;;;13.10;;
52266;SDS011;38223;50.940;4.034;2023-04-08T04:22:41;25.60;;;13.60;;
52266;SDS011;38223;50.940;4.034;2023-04-08T04:25:14;21.60;;;13.20;;
52266;SDS011;38223;50.940;4.034;2023-04-08T04:28:04;24.65;;;13.78;;
52266;SDS011;38223;50.940;4.034;2023-04-08T04:30:41;24.40;;;13.13;;
52266;SDS011;38223;50.940;4.034;2023-04-08T04:33:14;22.95;;;13.88;;
52266;SDS011;38223;50.940;4.034;2023-04-08T04:35:42;20.92;;;12.88;;
52266;SDS011;38223;50.940;4.034;2023-04-08T04:38:19;20.43;;;13.78;;
52266;SDS011;38223;50.940;4.034;2023-04-08T04:40:48;25.57;;;14.95;;
52266;SDS011;38223;50.940;4.034;2023-04-08T04:45:57;25.62;;;14.53;;
52266;SDS011;38223;50.940;4.034;2023-04-08T04:48:33;27.77;;;15.10;;
52266;SDS011;38223;50.940;4.034;2023-04-08T04:51:13;23.10;;;14.35;;
52266;SDS011;38223;50.940;4.034;2023-04-08T04:53:46;19.85;;;14.50;;
52266;SDS011;38223;50.940;4.034;2023-04-08T04:56:17;23.30;;;15.18;;
52266;SDS011;38223;50.940;4.034;2023-04-08T04:58:53;24.60;;;15.55;;
52266;SDS011;38223;50.940;4.034;2023-04-08T05:01:23;26.75;;;15.72;;
52266;SDS011;38223;50.940;4.034;2023-04-08T05:03:56;23.10;;;15.40;;
52266;SDS011;38223;50.940;4.034;2023-04-08T05:06:35;24.45;;;15.75;;
52266;SDS011;38223;50.940;4.034;2023-04-08T05:09:10;27.02;;;16.52;;
52266;SDS011;38223;50.940;4.034;2023-04-08T05:11:44;25.43;;;16.15;;
52266;SDS011;38223;50.940;4.034;2023-04-08T05:14:33;22.50;;;14.78;;
52266;SDS011;38223;50.940;4.034;2023-04-08T05:17:09;23.62;;;15.13;;
52266;SDS011;38223;50.940;4.034;2023-04-08T05:19:50;23.92;;;15.65;;
52266;SDS011;38223;50.940;4.034;2023-04-08T05:22:25;27.05;;;16.17;;
52266;SDS011;38223;50.940;4.034;2023-04-08T05:24:55;27.62;;;15.98;;
52266;SDS011;38223;50.940;4.034;2023-04-08T05:27:25;25.65;;;16.50;;
52266;SDS011;38223;50.940;4.034;2023-04-08T05:29:52;28.20;;;15.70;;
52266;SDS011;38223;50.940;4.034;2023-04-08T05:32:22;29.72;;;16.05;;
52266;SDS011;38223;50.940;4.034;2023-04-08T05:34:54;27.75;;;16.15;;
52266;SDS011;38223;50.940;4.034;2023-04-08T05:37:21;25.35;;;17.48;;
52266;SDS011;38223;50.940;4.034;2023-04-08T05:39:49;32.55;;;17.48;;
52266;SDS011;38223;50.940;4.034;2023-04-08T05:42:17;27.50;;;16.20;;
52266;SDS011;38223;50.940;4.034;2023-04-08T05:44:47;27.25;;;17.27;;
52266;SDS011;38223;50.940;4.034;2023-04-08T05:47:26;31.30;;;17.95;;
52266;SDS011;38223;50.940;4.034;2023-04-08T05:50:00;32.98;;;18.35;;
52266;SDS011;38223;50.940;4.034;2023-04-08T05:52:36;34.20;;;17.07;;
52266;SDS011;38223;50.940;4.034;2023-04-08T05:55:11;33.05;;;18.80;;
52266;SDS011;38223;50.940;4.034;2023-04-08T05:57:51;31.15;;;17.73;;
52266;SDS011;38223;50.940;4.034;2023-04-08T06:00:27;33.40;;;18.70;;
52266;SDS011;38223;50.940;4.034;2023-04-08T06:03:00;33.38;;;18.20;;
52266;SDS011;38223;50.940;4.034;2023-04-08T06:05:34;29.32;;;17.90;;
52266;SDS011;38223;50.940;4.034;2023-04-08T06:08:15;28.07;;;17.40;;
52266;SDS011;38223;50.940;4.034;2023-04-08T06:10:48;37.17;;;17.37;;
52266;SDS011;38223;50.940;4.034;2023-04-08T06:13:27;29.60;;;17.55;;
52266;SDS011;38223;50.940;4.034;2023-04-08T06:16:08;31.55;;;17.50;;
52266;SDS011;38223;50.940;4.034;2023-04-08T06:18:57;30.43;;;17.55;;
52266;SDS011;38223;50.940;4.034;2023-04-08T06:21:30;37.17;;;17.87;;
52266;SDS011;38223;50.940;4.034;2023-04-08T06:23:59;24.07;;;16.60;;
52266;SDS011;38223;50.940;4.034;2023-04-08T06:26:55;27.20;;;16.60;;
52266;SDS011;38223;50.940;4.034;2023-04-08T06:29:29;27.43;;;17.77;;
52266;SDS011;38223;50.940;4.034;2023-04-08T06:32:01;34.83;;;17.63;;
52266;SDS011;38223;50.940;4.034;2023-04-08T06:34:32;28.83;;;17.37;;
52266;SDS011;38223;50.940;4.034;2023-04-08T06:37:08;32.58;;;17.80;;
52266;SDS011;38223;50.940;4.034;2023-04-08T06:39:37;31.33;;;18.32;;
52266;SDS011;38223;50.940;4.034;2023-04-08T06:42:15;33.70;;;16.77;;
52266;SDS011;38223;50.940;4.034;2023-04-08T06:44:55;29.00;;;17.37;;
52266;SDS011;38223;50.940;4.034;2023-04-08T06:47:23;29.25;;;16.82;;
52266;SDS011;38223;50.940;4.034;2023-04-08T06:49:55;30.50;;;17.33;;
52266;SDS011;38223;50.940;4.034;2023-04-08T06:52:27;33.53;;;17.82;;
52266;SDS011;38223;50.940;4.034;2023-04-08T06:54:55;34.10;;;18.00;;
52266;SDS011;38223;50.940;4.034;2023-04-08T06:57:23;34.43;;;19.17;;
52266;SDS011;38223;50.940;4.034;2023-04-08T06:59:54;41.15;;;20.80;;
52266;SDS011;38223;50.940;4.034;2023-04-08T07:02:30;37.63;;;19.73;;
52266;SDS011;38223;50.940;4.034;2023-04-08T07:05:05;26.85;;;20.15;;
52266;SDS011;38223;50.940;4.034;2023-04-08T07:07:51;32.78;;;19.60;;
52266;SDS011;38223;50.940;4.034;2023-04-08T07:10:26;33.78;;;20.27;;
52266;SDS011;38223;50.940;4.034;2023-04-08T07:12:58;34.90;;;21.82;;
52266;SDS011;38223;50.940;4.034;2023-04-08T07:15:26;28.35;;;20.77;;
52266;SDS011;38223;50.940;4.034;2023-04-08T07:17:55;38.15;;;23.02;;
52266;SDS011;38223;50.940;4.034;2023-04-08T07:20:25;31.42;;;21.55;;
52266;SDS011;38223;50.940;4.034;2023-04-08T07:22:56;29.07;;;21.85;;
52266;SDS011;38223;50.940;4.034;2023-04-08T07:25:29;37.08;;;22.58;;
52266;SDS011;38223;50.940;4.034;2023-04-08T07:28:04;34.98;;;22.50;;
52266;SDS011;38223;50.940;4.034;2023-04-08T07:30:37;30.32;;;19.85;;
52266;SDS011;38223;50.940;4.034;2023-04-08T07:33:07;31.45;;;19.92;;
52266;SDS011;38223;50.940;4.034;2023-04-08T07:35:36;25.60;;;17.98;;
52266;SDS011;38223;50.940;4.034;2023-04-08T07:38:11;24.20;;;16.93;;
52266;SDS011;38223;50.940;4.034;2023-04-08T07:40:40;20.05;;;16.27;;
52266;SDS011;38223;50.940;4.034;2023-04-08T07:43:11;21.13;;;16.10;;
52266;SDS011;38223;50.940;4.034;2023-04-08T07:45:42;25.55;;;16.32;;
52266;SDS011;38223;50.940;4.034;2023-04-08T07:48:14;20.62;;;15.00;;
52266;SDS011;38223;50.940;4.034;2023-04-08T07:50:43;19.87;;;14.85;;
52266;SDS011;38223;50.940;4.034;2023-04-08T07:53:14;24.12;;;16.42;;
52266;SDS011;38223;50.940;4.034;2023-04-08T07:55:43;19.23;;;15.18;;
52266;SDS011;38223;50.940;4.034;2023-04-08T07:58:17;20.02;;;15.40;;
52266;SDS011;38223;50.940;4.034;2023-04-08T08:00:46;19.77;;;14.35;;
52266;SDS011;38223;50.940;4.034;2023-04-08T08:03:15;22.37;;;15.90;;
52266;SDS011;38223;50.940;4.034;2023-04-08T08:05:43;21.37;;;15.20;;
52266;SDS011;38223;50.940;4.034;2023-04-08T08:08:13;19.43;;;15.50;;
52266;SDS011;38223;50.940;4.034;2023-04-08T08:10:46;22.15;;;16.12;;
52266;SDS011;38223;50.940;4.034;2023-04-08T08:13:16;19.65;;;13.98;;
52266;SDS011;38223;50.940;4.034;2023-04-08T08:15:45;19.77;;;15.28;;
52266;SDS011;38223;50.940;4.034;2023-04-08T08:18:16;18.12;;;14.83;;
52266;SDS011;38223;50.940;4.034;2023-04-08T08:20:45;19.30;;;14.53;;
52266;SDS011;38223;50.940;4.034;2023-04-08T08:23:13;19.42;;;13.65;;
52266;SDS011;38223;50.940;4.034;2023-04-08T08:25:40;16.12;;;13.08;;
52266;SDS011;38223;50.940;4.034;2023-04-08T08:28:08;18.32;;;13.90;;
52266;SDS011;38223;50.940;4.034;2023-04-08T08:30:37;19.20;;;13.72;;
52266;SDS011;38223;50.940;4.034;2023-04-08T08:33:09;19.60;;;13.25;;
52266;SDS011;38223;50.940;4.034;2023-04-08T08:35:37;18.60;;;13.80;;
52266;SDS011;38223;50.940;4.034;2023-04-08T08:38:08;19.67;;;13.95;;
52266;SDS011;38223;50.940;4.034;2023-04-08T08:40:38;17.07;;;13.18;;
52266;SDS011;38223;50.940;4.034;2023-04-08T08:43:10;19.00;;;13.48;;
52266;SDS011;38223;50.940;4.034;2023-04-08T08:45:42;21.82;;;15.00;;
52266;SDS011;38223;50.940;4.034;2023-04-08T08:48:12;28.27;;;16.37;;
52266;SDS011;38223;50.940;4.034;2023-04-08T08:50:46;27.05;;;15.93;;
52266;SDS011;38223;50.940;4.034;2023-04-08T08:53:16;27.40;;;16.35;;
52266;SDS011;38223;50.940;4.034;2023-04-08T08:55:57;23.73;;;15.20;;
52266;SDS011;38223;50.940;4.034;2023-04-08T08:58:30;24.90;;;15.95;;
52266;SDS011;38223;50.940;4.034;2023-04-08T09:01:28;24.92;;;15.50;;
52266;SDS011;38223;50.940;4.034;2023-04-08T09:04:13;26.40;;;15.35;;
52266;SDS011;38223;50.940;4.034;2023-04-08T09:07:03;27.93;;;17.20;;
52266;SDS011;38223;50.940;4.034;2023-04-08T09:09:47;23.22;;;15.53;;
52266;SDS011;38223;50.940;4.034;2023-04-08T09:12:21;28.90;;;16.12;;
52266;SDS011;38223;50.940;4.034;2023-04-08T09:15:02;28.15;;;16.50;;
52266;SDS011;38223;50.940;4.034;2023-04-08T09:17:37;26.27;;;16.17;;
52266;SDS011;38223;50.940;4.034;2023-04-08T09:20:11;21.50;;;14.75;;
52266;SDS011;38223;50.940;4.034;2023-04-08T09:22:59;24.27;;;14.70;;
52266;SDS011;38223;50.940;4.034;2023-04-08T09:25:30;21.75;;;14.47;;
52266;SDS011;38223;50.940;4.034;2023-04-08T09:28:03;16.87;;;13.38;;
52266;SDS011;38223;50.940;4.034;2023-04-08T09:30:31;18.62;;;13.30;;
52266;SDS011;38223;50.940;4.034;2023-04-08T09:33:01;19.42;;;14.35;;
52266;SDS011;38223;50.940;4.034;2023-04-08T09:35:38;17.40;;;12.93;;
52266;SDS011;38223;50.940;4.034;2023-04-08T09:38:09;17.85;;;14.43;;
52266;SDS011;38223;50.940;4.034;2023-04-08T09:40:39;15.28;;;13.78;;
52266;SDS011;38223;50.940;4.034;2023-04-08T09:43:11;15.30;;;12.78;;
52266;SDS011;38223;50.940;4.034;2023-04-08T09:45:44;17.05;;;13.28;;
52266;SDS011;38223;50.940;4.034;2023-04-08T09:48:19;17.23;;;13.28;;
52266;SDS011;38223;50.940;4.034;2023-04-08T09:50:54;18.95;;;12.75;;
52266;SDS011;38223;50.940;4.034;2023-04-08T09:53:37;13.55;;;10.82;;
52266;SDS011;38223;50.940;4.034;2023-04-08T09:56:06;12.85;;;11.28;;
52266;SDS011;38223;50.940;4.034;2023-04-08T09:58:44;13.48;;;12.03;;
52266;SDS011;38223;50.940;4.034;2023-04-08T10:01:15;16.80;;;11.60;;
52266;SDS011;38223;50.940;4.034;2023-04-08T10:03:48;11.48;;;9.85;;
52266;SDS011;38223;50.940;4.034;2023-04-08T10:06:20;13.18;;;11.65;;
52266;SDS011;38223;50.940;4.034;2023-04-08T10:08:50;13.78;;;11.28;;
52266;SDS011;38223;50.940;4.034;2023-04-08T10:11:18;16.90;;;11.75;;
52266;SDS011;38223;50.940;4.034;2023-04-08T10:13:51;14.20;;;11.22;;
52266;SDS011;38223;50.940;4.034;2023-04-08T10:16:25;12.85;;;10.98;;
52266;SDS011;38223;50.940;4.034;2023-04-08T10:18:57;13.18;;;11.40;;
52266;SDS011;38223;50.940;4.034;2023-04-08T10:21:34;13.40;;;11.80;;
52266;SDS011;38223;50.940;4.034;2023-04-08T10:24:12;13.25;;;11.85;;
52266;SDS011;38223;50.940;4.034;2023-04-08T10:26:46;12.73;;;11.43;;
52266;SDS011;38223;50.940;4.034;2023-04-08T10:29:50;13.22;;;11.88;;
52266;SDS011;38223;50.940;4.034;2023-04-08T10:31:58;13.55;;;11.50;;
52266;SDS011;38223;50.940;4.034;2023-04-08T10:34:31;14.38;;;12.28;;
52266;SDS011;38223;50.940;4.034;2023-04-08T10:37:02;14.07;;;12.78;;
52266;SDS011;38223;50.940;4.034;2023-04-08T10:39:37;15.45;;;12.45;;
52266;SDS011;38223;50.940;4.034;2023-04-08T10:42:10;14.83;;;13.43;;
52266;SDS011;38223;50.940;4.034;2023-04-08T10:44:43;14.87;;;12.58;;
52266;SDS011;38223;50.940;4.034;2023-04-08T10:47:24;16.57;;;13.35;;
52266;SDS011;38223;50.940;4.034;2023-04-08T10:49:53;16.20;;;13.65;;
52266;SDS011;38223;50.940;4.034;2023-04-08T10:52:22;14.95;;;13.30;;
52266;SDS011;38223;50.940;4.034;2023-04-08T10:54:51;20.45;;;15.05;;
52266;SDS011;38223;50.940;4.034;2023-04-08T10:57:22;17.50;;;14.35;;
52266;SDS011;38223;50.940;4.034;2023-04-08T10:59:54;15.75;;;14.40;;
52266;SDS011;38223;50.940;4.034;2023-04-08T11:02:31;15.53;;;14.00;;
52266;SDS011;38223;50.940;4.034;2023-04-08T11:05:04;17.07;;;15.23;;
52266;SDS011;38223;50.940;4.034;2023-04-08T11:07:46;17.23;;;15.05;;
52266;SDS011;38223;50.940;4.034;2023-04-08T11:10:21;18.23;;;16.02;;
52266;SDS011;38223;50.940;4.034;2023-04-08T11:12:57;16.77;;;14.78;;
52266;SDS011;38223;50.940;4.034;2023-04-08T11:15:24;16.87;;;15.00;;
52266;SDS011;38223;50.940;4.034;2023-04-08T11:17:51;16.30;;;14.40;;
52266;SDS011;38223;50.940;4.034;2023-04-08T11:20:27;20.32;;;16.77;;
52266;SDS011;38223;50.940;4.034;2023-04-08T11:23:02;17.50;;;15.75;;
52266;SDS011;38223;50.940;4.034;2023-04-08T11:25:33;19.12;;;16.20;;
52266;SDS011;38223;50.940;4.034;2023-04-08T11:28:02;17.40;;;15.15;;
52266;SDS011;38223;50.940;4.034;2023-04-08T11:30:32;18.05;;;16.12;;
52266;SDS011;38223;50.940;4.034;2023-04-08T11:32:59;18.67;;;16.62;;
52266;SDS011;38223;50.940;4.034;2023-04-08T11:35:31;19.23;;;15.88;;
52266;SDS011;38223;50.940;4.034;2023-04-08T11:37:59;21.77;;;15.83;;
52266;SDS011;38223;50.940;4.034;2023-04-08T11:40:29;22.58;;;16.37;;
52266;SDS011;38223;50.940;4.034;2023-04-08T11:43:11;18.37;;;16.45;;
52266;SDS011;38223;50.940;4.034;2023-04-08T11:45:48;18.52;;;15.93;;
52266;SDS011;38223;50.940;4.034;2023-04-08T11:48:16;17.35;;;15.45;;
52266;SDS011;38223;50.940;4.034;2023-04-08T11:50:44;15.72;;;14.03;;
52266;SDS011;38223;50.940;4.034;2023-04-08T11:53:16;14.28;;;12.78;;
52266;SDS011;38223;50.940;4.034;2023-04-08T11:55:57;12.95;;;11.45;;
52266;SDS011;38223;50.940;4.034;2023-04-08T11:58:28;15.65;;;14.15;;
52266;SDS011;38223;50.940;4.034;2023-04-08T12:00:57;16.62;;;14.85;;
52266;SDS011;38223;50.940;4.034;2023-04-08T12:03:28;14.05;;;12.07;;
52266;SDS011;38223;50.940;4.034;2023-04-08T12:05:56;10.63;;;9.73;;
52266;SDS011;38223;50.940;4.034;2023-04-08T12:08:24;11.05;;;10.13;;
52266;SDS011;38223;50.940;4.034;2023-04-08T12:10:53;11.30;;;10.30;;
52266;SDS011;38223;50.940;4.034;2023-04-08T12:13:20;11.70;;;10.60;;
52266;SDS011;38223;50.940;4.034;2023-04-08T12:15:48;13.22;;;11.80;;
52266;SDS011;38223;50.940;4.034;2023-04-08T12:18:16;13.83;;;12.53;;
52266;SDS011;38223;50.940;4.034;2023-04-08T12:20:43;13.08;;;11.78;;
52266;SDS011;38223;50.940;4.034;2023-04-08T12:23:11;13.03;;;11.93;;
52266;SDS011;38223;50.940;4.034;2023-04-08T12:25:48;11.20;;;10.23;;
52266;SDS011;38223;50.940;4.034;2023-04-08T12:28:23;11.68;;;10.43;;
52266;SDS011;38223;50.940;4.034;2023-04-08T12:31:01;14.63;;;12.68;;
52266;SDS011;38223;50.940;4.034;2023-04-08T12:33:29;13.53;;;12.23;;
52266;SDS011;38223;50.940;4.034;2023-04-08T12:35:57;16.15;;;12.43;;
52266;SDS011;38223;50.940;4.034;2023-04-08T12:38:25;13.53;;;12.25;;
52266;SDS011;38223;50.940;4.034;2023-04-08T12:40:53;15.50;;;12.93;;
52266;SDS011;38223;50.940;4.034;2023-04-08T12:43:21;15.85;;;14.38;;
52266;SDS011;38223;50.940;4.034;2023-04-08T12:45:49;15.00;;;13.30;;
52266;SDS011;38223;50.940;4.034;2023-04-08T12:48:17;13.45;;;11.60;;
52266;SDS011;38223;50.940;4.034;2023-04-08T12:50:45;11.65;;;10.50;;
52266;SDS011;38223;50.940;4.034;2023-04-08T12:53:35;14.65;;;12.73;;
52266;SDS011;38223;50.940;4.034;2023-04-08T12:56:02;14.05;;;12.63;;
52266;SDS011;38223;50.940;4.034;2023-04-08T12:58:32;13.32;;;12.05;;
52266;SDS011;38223;50.940;4.034;2023-04-08T13:01:08;13.35;;;12.03;;
52266;SDS011;38223;50.940;4.034;2023-04-08T13:03:40;12.90;;;11.75;;
52266;SDS011;38223;50.940;4.034;2023-04-08T13:06:09;15.00;;;13.30;;
52266;SDS011;38223;50.940;4.034;2023-04-08T13:08:40;13.08;;;11.78;;
52266;SDS011;38223;50.940;4.034;2023-04-08T13:11:08;14.78;;;13.35;;
52266;SDS011;38223;50.940;4.034;2023-04-08T13:13:41;15.50;;;13.78;;
52266;SDS011;38223;50.940;4.034;2023-04-08T13:16:16;16.17;;;14.55;;
52266;SDS011;38223;50.940;4.034;2023-04-08T13:18:46;15.90;;;14.23;;
52266;SDS011;38223;50.940;4.034;2023-04-08T13:21:14;15.72;;;14.20;;
52266;SDS011;38223;50.940;4.034;2023-04-08T13:23:45;16.42;;;14.80;;
52266;SDS011;38223;50.940;4.034;2023-04-08T13:26:20;17.02;;;15.10;;
52266;SDS011;38223;50.940;4.034;2023-04-08T13:28:58;16.55;;;14.95;;
52266;SDS011;38223;50.940;4.034;2023-04-08T13:31:32;18.98;;;13.58;;
52266;SDS011;38223;50.940;4.034;2023-04-08T13:34:03;15.50;;;14.10;;
52266;SDS011;38223;50.940;4.034;2023-04-08T13:36:32;15.78;;;14.43;;
52266;SDS011;38223;50.940;4.034;2023-04-08T13:39:05;15.50;;;13.68;;
52266;SDS011;38223;50.940;4.034;2023-04-08T13:41:33;15.65;;;14.13;;
52266;SDS011;38223;50.940;4.034;2023-04-08T13:44:08;15.90;;;14.30;;
52266;SDS011;38223;50.940;4.034;2023-04-08T13:46:36;15.53;;;14.20;;
52266;SDS011;38223;50.940;4.034;2023-04-08T13:49:04;16.10;;;14.50;;
52266;SDS011;38223;50.940;4.034;2023-04-08T13:51:34;15.72;;;14.25;;
52266;SDS011;38223;50.940;4.034;2023-04-08T13:54:01;16.02;;;14.50;;
52266;SDS011;38223;50.940;4.034;2023-04-08T13:56:36;15.40;;;13.93;;
52266;SDS011;38223;50.940;4.034;2023-04-08T13:59:04;16.15;;;14.25;;
52266;SDS011;38223;50.940;4.034;2023-04-08T14:01:32;16.25;;;14.68;;
52266;SDS011;38223;50.940;4.034;2023-04-08T14:04:01;17.48;;;15.18;;
52266;SDS011;38223;50.940;4.034;2023-04-08T14:06:50;17.12;;;15.53;;
52266;SDS011;38223;50.940;4.034;2023-04-08T14:09:19;16.32;;;14.58;;
52266;SDS011;38223;50.940;4.034;2023-04-08T14:11:46;16.80;;;15.10;;
52266;SDS011;38223;50.940;4.034;2023-04-08T14:14:14;16.65;;;14.85;;
52266;SDS011;38223;50.940;4.034;2023-04-08T14:16:42;17.45;;;15.23;;
52266;SDS011;38223;50.940;4.034;2023-04-08T14:19:09;18.27;;;15.75;;
52266;SDS011;38223;50.940;4.034;2023-04-08T14:21:50;15.85;;;14.13;;
52266;SDS011;38223;50.940;4.034;2023-04-08T14:24:19;14.93;;;13.37;;
52266;SDS011;38223;50.940;4.034;2023-04-08T14:26:48;15.05;;;13.55;;
52266;SDS011;38223;50.940;4.034;2023-04-08T14:32:03;15.70;;;13.83;;
52266;SDS011;38223;50.940;4.034;2023-04-08T14:34:31;16.75;;;14.73;;
52266;SDS011;38223;50.940;4.034;2023-04-08T14:37:03;15.95;;;14.53;;
52266;SDS011;38223;50.940;4.034;2023-04-08T14:39:40;16.12;;;14.33;;
52266;SDS011;38223;50.940;4.034;2023-04-08T14:42:10;15.53;;;14.23;;
52266;SDS011;38223;50.940;4.034;2023-04-08T14:44:43;16.42;;;14.23;;
52266;SDS011;38223;50.940;4.034;2023-04-08T14:47:11;15.40;;;13.85;;
52266;SDS011;38223;50.940;4.034;2023-04-08T14:49:39;13.75;;;12.55;;
52266;SDS011;38223;50.940;4.034;2023-04-08T14:52:07;14.58;;;13.18;;
52266;SDS011;38223;50.940;4.034;2023-04-08T14:54:35;16.82;;;14.98;;
52266;SDS011;38223;50.940;4.034;2023-04-08T14:57:02;16.20;;;14.50;;
52266;SDS011;38223;50.940;4.034;2023-04-08T14:59:31;15.83;;;14.10;;
52266;SDS011;38223;50.940;4.034;2023-04-08T15:02:10;15.85;;;14.30;;
52266;SDS011;38223;50.940;4.034;2023-04-08T15:04:46;17.52;;;15.00;;
52266;SDS011;38223;50.940;4.034;2023-04-08T15:07:27;16.42;;;14.80;;
52266;SDS011;38223;50.940;4.034;2023-04-08T15:09:54;16.77;;;14.35;;
52266;SDS011;38223;50.940;4.034;2023-04-08T15:12:22;15.80;;;14.13;;